sensor_id;sensor_type;location;lat;lon;timestamp;noise_LAeq;noise_LA_min;noise_LA_max;noise_LA01;noise_LA95
71030;Laerm;63723;51.436;5.976;2022-11-23T00:00:05;40.86;39.55;43.15;;
71030;Laerm;63723;51.436;5.976;2022-11-23T00:00:16;41.16;39.19;47.66;;
71030;Laerm;63723;51.436;5.976;2022-11-23T00:00:26;40.47;39.03;42.69;;
71030;Laerm;63723;51.436;5.976;2022-11-23T00:00:37;40.49;38.67;42.62;;
71030;Laerm;63723;51.436;5.976;2022-11-23T00:00:47;40.79;38.82;42.41;;
71030;Laerm;63723;51.436;5.976;2022-11-23T00:00:57;41.57;39.63;43.05;;
71030;Laerm;63723;51.436;5.976;2022-11-23T00:01:17;41.66;39.92;43.59;;
71030;Laerm;63723;51.436;5.976;2022-11-23T00:01:30;41.68;39.72;51.17;;
71030;Laerm;63723;51.436;5.976;2022-11-23T00:01:41;40.98;39.45;44.06;;
71030;Laerm;63723;51.436;5.976;2022-11-23T00:01:51;41.27;39.57;43.42;;
71030;Laerm;63723;51.436;5.976;2022-11-23T00:02:02;41.51;39.88;44.51;;
71030;Laerm;63723;51.436;5.976;2022-11-23T00:02:12;42.04;40.44;43.75;;
71030;Laerm;63723;51.436;5.976;2022-11-23T00:02:22;44.85;40.81;60.39;;
71030;Laerm;63723;51.436;5.976;2022-11-23T00:02:32;41.61;39.91;43.24;;
71030;Laerm;63723;51.436;5.976;2022-11-23T00:02:43;42.57;40.56;49.04;;
71030;Laerm;63723;51.436;5.976;2022-11-23T00:02:53;41.95;40.42;43.45;;
71030;Laerm;63723;51.436;5.976;2022-11-23T00:03:04;43.22;41.60;45.28;;
71030;Laerm;63723;51.436;5.976;2022-11-23T00:03:14;42.96;40.42;45.79;;
71030;Laerm;63723;51.436;5.976;2022-11-23T00:03:25;43.04;40.87;46.82;;
71030;Laerm;63723;51.436;5.976;2022-11-23T00:03:35;44.44;43.07;46.56;;
71030;Laerm;63723;51.436;5.976;2022-11-23T00:03:46;45.06;43.10;47.35;;
71030;Laerm;63723;51.436;5.976;2022-11-23T00:03:58;42.35;40.42;44.28;;
71030;Laerm;63723;51.436;5.976;2022-11-23T00:04:10;41.58;40.11;44.14;;
71030;Laerm;63723;51.436;5.976;2022-11-23T00:04:21;41.56;40.08;43.39;;
71030;Laerm;63723;51.436;5.976;2022-11-23T00:04:33;42.14;40.34;44.39;;
71030;Laerm;63723;51.436;5.976;2022-11-23T00:04:44;42.47;40.99;44.74;;
71030;Laerm;63723;51.436;5.976;2022-11-23T00:04:54;42.85;40.61;48.00;;
71030;Laerm;63723;51.436;5.976;2022-11-23T00:05:05;42.11;40.22;47.27;;
71030;Laerm;63723;51.436;5.976;2022-11-23T00:05:15;41.88;40.13;44.26;;
71030;Laerm;63723;51.436;5.976;2022-11-23T00:05:26;41.77;39.81;45.24;;
71030;Laerm;63723;51.436;5.976;2022-11-23T00:05:36;41.59;38.70;48.76;;
71030;Laerm;63723;51.436;5.976;2022-11-23T00:05:47;41.54;39.56;44.26;;
71030;Laerm;63723;51.436;5.976;2022-11-23T00:06:00;43.51;40.62;51.43;;
71030;Laerm;63723;51.436;5.976;2022-11-23T00:06:10;43.04;40.88;45.20;;
71030;Laerm;63723;51.436;5.976;2022-11-23T00:06:21;41.90;39.98;44.75;;
71030;Laerm;63723;51.436;5.976;2022-11-23T00:06:32;45.47;41.12;54.45;;
71030;Laerm;63723;51.436;5.976;2022-11-23T00:06:43;42.37;40.49;45.45;;
71030;Laerm;63723;51.436;5.976;2022-11-23T00:06:53;41.79;39.97;44.42;;
71030;Laerm;63723;51.436;5.976;2022-11-23T00:07:03;42.26;40.88;43.90;;
71030;Laerm;63723;51.436;5.976;2022-11-23T00:07:14;43.64;41.78;46.51;;
71030;Laerm;63723;51.436;5.976;2022-11-23T00:07:24;44.88;42.03;55.42;;
71030;Laerm;63723;51.436;5.976;2022-11-23T00:07:34;45.49;41.57;54.37;;
71030;Laerm;63723;51.436;5.976;2022-11-23T00:07:44;41.78;40.18;46.52;;
71030;Laerm;63723;51.436;5.976;2022-11-23T00:07:55;41.33;39.88;42.88;;
71030;Laerm;63723;51.436;5.976;2022-11-23T00:08:05;41.07;39.57;45.40;;
71030;Laerm;63723;51.436;5.976;2022-11-23T00:08:15;41.96;39.24;43.93;;
71030;Laerm;63723;51.436;5.976;2022-11-23T00:08:26;42.85;41.19;45.49;;
71030;Laerm;63723;51.436;5.976;2022-11-23T00:08:36;42.46;40.15;45.27;;
71030;Laerm;63723;51.436;5.976;2022-11-23T00:08:46;41.64;40.20;43.99;;
71030;Laerm;63723;51.436;5.976;2022-11-23T00:08:57;41.96;40.50;43.56;;
71030;Laerm;63723;51.436;5.976;2022-11-23T00:09:08;42.31;40.41;45.95;;
71030;Laerm;63723;51.436;5.976;2022-11-23T00:09:19;41.91;40.51;43.88;;
71030;Laerm;63723;51.436;5.976;2022-11-23T00:09:29;41.50;40.09;43.14;;
71030;Laerm;63723;51.436;5.976;2022-11-23T00:09:39;41.95;40.08;47.13;;
71030;Laerm;63723;51.436;5.976;2022-11-23T00:09:50;41.84;39.95;43.64;;
71030;Laerm;63723;51.436;5.976;2022-11-23T00:10:00;41.57;39.93;43.92;;
71030;Laerm;63723;51.436;5.976;2022-11-23T00:10:11;41.77;40.33;43.72;;
71030;Laerm;63723;51.436;5.976;2022-11-23T00:10:21;41.96;40.32;45.94;;
71030;Laerm;63723;51.436;5.976;2022-11-23T00:10:31;41.97;40.47;43.91;;
71030;Laerm;63723;51.436;5.976;2022-11-23T00:10:41;41.95;40.20;45.10;;
71030;Laerm;63723;51.436;5.976;2022-11-23T00:10:52;41.30;39.70;45.03;;
71030;Laerm;63723;51.436;5.976;2022-11-23T00:11:02;47.86;39.67;58.80;;
71030;Laerm;63723;51.436;5.976;2022-11-23T00:11:12;41.02;39.16;43.09;;
71030;Laerm;63723;51.436;5.976;2022-11-23T00:11:23;41.02;39.41;43.74;;
71030;Laerm;63723;51.436;5.976;2022-11-23T00:11:34;40.81;39.30;42.38;;
71030;Laerm;63723;51.436;5.976;2022-11-23T00:11:44;40.85;39.40;44.87;;
71030;Laerm;63723;51.436;5.976;2022-11-23T00:11:55;41.75;40.14;44.24;;
71030;Laerm;63723;51.436;5.976;2022-11-23T00:12:05;56.83;42.17;63.06;;
71030;Laerm;63723;51.436;5.976;2022-11-23T00:12:15;42.67;39.56;48.36;;
71030;Laerm;63723;51.436;5.976;2022-11-23T00:12:26;41.58;39.56;45.89;;
71030;Laerm;63723;51.436;5.976;2022-11-23T00:12:36;41.85;39.49;45.21;;
71030;Laerm;63723;51.436;5.976;2022-11-23T00:12:47;41.21;39.45;43.79;;
71030;Laerm;63723;51.436;5.976;2022-11-23T00:12:57;40.82;38.53;42.86;;
71030;Laerm;63723;51.436;5.976;2022-11-23T00:13:07;42.15;40.48;44.31;;
71030;Laerm;63723;51.436;5.976;2022-11-23T00:13:18;42.74;41.03;44.94;;
71030;Laerm;63723;51.436;5.976;2022-11-23T00:13:28;42.28;40.93;43.68;;
71030;Laerm;63723;51.436;5.976;2022-11-23T00:13:38;41.88;39.76;48.16;;
71030;Laerm;63723;51.436;5.976;2022-11-23T00:13:49;40.78;39.08;43.49;;
71030;Laerm;63723;51.436;5.976;2022-11-23T00:14:00;40.65;39.13;42.76;;
71030;Laerm;63723;51.436;5.976;2022-11-23T00:14:10;40.63;38.51;42.90;;
71030;Laerm;63723;51.436;5.976;2022-11-23T00:14:20;41.52;39.12;44.88;;
71030;Laerm;63723;51.436;5.976;2022-11-23T00:14:30;42.43;40.81;44.86;;
71030;Laerm;63723;51.436;5.976;2022-11-23T00:14:41;43.11;40.59;47.71;;
71030;Laerm;63723;51.436;5.976;2022-11-23T00:14:51;41.37;39.48;44.21;;
71030;Laerm;63723;51.436;5.976;2022-11-23T00:15:01;41.97;40.06;48.69;;
71030;Laerm;63723;51.436;5.976;2022-11-23T00:15:12;41.85;39.90;43.91;;
71030;Laerm;63723;51.436;5.976;2022-11-23T00:15:22;41.55;40.07;44.02;;
71030;Laerm;63723;51.436;5.976;2022-11-23T00:15:33;42.60;40.67;44.44;;
71030;Laerm;63723;51.436;5.976;2022-11-23T00:15:44;42.88;41.35;46.22;;
71030;Laerm;63723;51.436;5.976;2022-11-23T00:15:54;42.49;40.17;44.83;;
71030;Laerm;63723;51.436;5.976;2022-11-23T00:16:06;41.83;40.38;44.38;;
71030;Laerm;63723;51.436;5.976;2022-11-23T00:16:17;41.61;39.97;43.46;;
71030;Laerm;63723;51.436;5.976;2022-11-23T00:16:29;41.01;39.36;42.99;;
71030;Laerm;63723;51.436;5.976;2022-11-23T00:16:39;41.57;40.04;45.44;;
71030;Laerm;63723;51.436;5.976;2022-11-23T00:16:49;43.46;40.99;45.55;;
71030;Laerm;63723;51.436;5.976;2022-11-23T00:17:00;44.34;42.94;47.08;;
71030;Laerm;63723;51.436;5.976;2022-11-23T00:17:10;44.86;41.26;52.34;;
71030;Laerm;63723;51.436;5.976;2022-11-23T00:17:20;74.76;51.31;80.20;;
71030;Laerm;63723;51.436;5.976;2022-11-23T00:17:30;75.36;72.37;79.86;;
71030;Laerm;63723;51.436;5.976;2022-11-23T00:17:41;72.39;52.54;78.45;;
71030;Laerm;63723;51.436;5.976;2022-11-23T00:17:51;51.49;46.73;55.86;;
71030;Laerm;63723;51.436;5.976;2022-11-23T00:18:01;49.58;43.53;60.65;;
71030;Laerm;63723;51.436;5.976;2022-11-23T00:18:12;44.22;42.04;48.27;;
71030;Laerm;63723;51.436;5.976;2022-11-23T00:18:23;43.01;40.46;47.27;;
71030;Laerm;63723;51.436;5.976;2022-11-23T00:18:34;41.89;39.52;43.99;;
71030;Laerm;63723;51.436;5.976;2022-11-23T00:18:44;41.00;38.96;43.19;;
71030;Laerm;63723;51.436;5.976;2022-11-23T00:18:55;40.99;39.46;45.69;;
71030;Laerm;63723;51.436;5.976;2022-11-23T00:19:05;41.83;40.00;43.80;;
71030;Laerm;63723;51.436;5.976;2022-11-23T00:19:16;43.55;41.36;47.01;;
71030;Laerm;63723;51.436;5.976;2022-11-23T00:19:26;42.64;40.73;44.65;;
71030;Laerm;63723;51.436;5.976;2022-11-23T00:19:36;41.56;40.04;42.77;;
71030;Laerm;63723;51.436;5.976;2022-11-23T00:19:47;41.65;40.52;43.36;;
71030;Laerm;63723;51.436;5.976;2022-11-23T00:19:57;41.41;39.51;43.87;;
71030;Laerm;63723;51.436;5.976;2022-11-23T00:20:07;41.31;39.73;43.41;;
71030;Laerm;63723;51.436;5.976;2022-11-23T00:20:18;41.44;39.94;44.87;;
71030;Laerm;63723;51.436;5.976;2022-11-23T00:20:28;41.23;39.60;43.08;;
71030;Laerm;63723;51.436;5.976;2022-11-23T00:20:38;41.25;39.53;42.76;;
71030;Laerm;63723;51.436;5.976;2022-11-23T00:20:48;40.90;39.41;42.23;;
71030;Laerm;63723;51.436;5.976;2022-11-23T00:20:59;40.67;38.92;42.72;;
71030;Laerm;63723;51.436;5.976;2022-11-23T00:21:13;40.96;39.59;42.82;;
71030;Laerm;63723;51.436;5.976;2022-11-23T00:21:25;41.01;39.16;44.20;;
71030;Laerm;63723;51.436;5.976;2022-11-23T00:21:36;41.14;39.59;43.80;;
71030;Laerm;63723;51.436;5.976;2022-11-23T00:21:46;41.22;39.71;43.32;;
71030;Laerm;63723;51.436;5.976;2022-11-23T00:21:56;41.48;39.63;45.46;;
71030;Laerm;63723;51.436;5.976;2022-11-23T00:22:07;43.32;40.00;51.42;;
71030;Laerm;63723;51.436;5.976;2022-11-23T00:22:17;42.82;41.05;44.92;;
71030;Laerm;63723;51.436;5.976;2022-11-23T00:22:27;45.45;41.93;50.30;;
71030;Laerm;63723;51.436;5.976;2022-11-23T00:22:38;74.11;46.67;81.42;;
71030;Laerm;63723;51.436;5.976;2022-11-23T00:22:48;75.54;71.02;80.39;;
71030;Laerm;63723;51.436;5.976;2022-11-23T00:22:58;75.20;67.14;79.53;;
71030;Laerm;63723;51.436;5.976;2022-11-23T00:23:08;57.39;42.52;70.33;;
71030;Laerm;63723;51.436;5.976;2022-11-23T00:23:19;42.66;40.56;45.18;;
71030;Laerm;63723;51.436;5.976;2022-11-23T00:23:29;41.64;39.82;45.05;;
71030;Laerm;63723;51.436;5.976;2022-11-23T00:23:39;41.38;39.68;43.30;;
71030;Laerm;63723;51.436;5.976;2022-11-23T00:23:49;42.08;40.04;43.81;;
71030;Laerm;63723;51.436;5.976;2022-11-23T00:24:00;42.04;40.01;44.14;;
71030;Laerm;63723;51.436;5.976;2022-11-23T00:24:11;40.94;38.91;44.78;;
71030;Laerm;63723;51.436;5.976;2022-11-23T00:24:22;40.70;39.05;43.79;;
71030;Laerm;63723;51.436;5.976;2022-11-23T00:24:32;40.62;38.89;43.10;;
71030;Laerm;63723;51.436;5.976;2022-11-23T00:24:42;40.92;39.35;42.55;;
71030;Laerm;63723;51.436;5.976;2022-11-23T00:24:52;40.18;38.66;43.63;;
71030;Laerm;63723;51.436;5.976;2022-11-23T00:25:03;40.17;38.48;42.76;;
71030;Laerm;63723;51.436;5.976;2022-11-23T00:25:13;40.60;39.10;42.49;;
71030;Laerm;63723;51.436;5.976;2022-11-23T00:25:23;40.70;39.23;42.50;;
71030;Laerm;63723;51.436;5.976;2022-11-23T00:25:34;40.87;39.36;43.26;;
71030;Laerm;63723;51.436;5.976;2022-11-23T00:25:44;40.96;38.83;43.46;;
71030;Laerm;63723;51.436;5.976;2022-11-23T00:25:55;40.64;39.25;42.54;;
71030;Laerm;63723;51.436;5.976;2022-11-23T00:26:06;41.02;39.16;47.20;;
71030;Laerm;63723;51.436;5.976;2022-11-23T00:26:16;41.68;39.68;44.08;;
71030;Laerm;63723;51.436;5.976;2022-11-23T00:26:27;42.85;41.44;44.45;;
71030;Laerm;63723;51.436;5.976;2022-11-23T00:26:37;41.56;39.75;43.49;;
71030;Laerm;63723;51.436;5.976;2022-11-23T00:26:47;40.74;39.18;42.72;;
71030;Laerm;63723;51.436;5.976;2022-11-23T00:26:57;40.48;39.02;42.37;;
71030;Laerm;63723;51.436;5.976;2022-11-23T00:27:08;40.80;39.42;42.18;;
71030;Laerm;63723;51.436;5.976;2022-11-23T00:27:18;40.40;38.72;41.93;;
71030;Laerm;63723;51.436;5.976;2022-11-23T00:27:29;40.55;39.06;42.39;;
71030;Laerm;63723;51.436;5.976;2022-11-23T00:27:39;40.31;38.95;42.82;;
71030;Laerm;63723;51.436;5.976;2022-11-23T00:27:49;40.61;39.12;42.51;;
71030;Laerm;63723;51.436;5.976;2022-11-23T00:27:59;40.79;38.88;44.04;;
71030;Laerm;63723;51.436;5.976;2022-11-23T00:28:10;40.78;39.32;42.39;;
71030;Laerm;63723;51.436;5.976;2022-11-23T00:28:20;40.76;39.02;42.41;;
71030;Laerm;63723;51.436;5.976;2022-11-23T00:28:30;40.43;38.82;44.36;;
71030;Laerm;63723;51.436;5.976;2022-11-23T00:28:40;40.13;38.30;42.22;;
71030;Laerm;63723;51.436;5.976;2022-11-23T00:28:51;40.26;38.76;43.39;;
71030;Laerm;63723;51.436;5.976;2022-11-23T00:29:01;40.13;38.54;44.53;;
71030;Laerm;63723;51.436;5.976;2022-11-23T00:29:11;39.93;38.51;41.79;;
71030;Laerm;63723;51.436;5.976;2022-11-23T00:29:21;39.92;37.90;42.24;;
71030;Laerm;63723;51.436;5.976;2022-11-23T00:29:32;40.63;38.37;43.32;;
71030;Laerm;63723;51.436;5.976;2022-11-23T00:29:42;41.33;39.61;43.71;;
71030;Laerm;63723;51.436;5.976;2022-11-23T00:29:52;40.78;38.73;43.42;;
71030;Laerm;63723;51.436;5.976;2022-11-23T00:30:03;41.37;39.58;43.29;;
71030;Laerm;63723;51.436;5.976;2022-11-23T00:30:13;41.33;39.68;43.33;;
71030;Laerm;63723;51.436;5.976;2022-11-23T00:30:23;41.05;39.51;42.64;;
71030;Laerm;63723;51.436;5.976;2022-11-23T00:30:34;43.12;40.12;55.75;;
71030;Laerm;63723;51.436;5.976;2022-11-23T00:30:47;41.52;39.74;47.85;;
71030;Laerm;63723;51.436;5.976;2022-11-23T00:30:57;41.38;39.67;51.23;;
71030;Laerm;63723;51.436;5.976;2022-11-23T00:31:08;40.72;39.55;42.76;;
71030;Laerm;63723;51.436;5.976;2022-11-23T00:31:19;40.49;38.82;44.12;;
71030;Laerm;63723;51.436;5.976;2022-11-23T00:31:30;40.61;38.89;43.72;;
71030;Laerm;63723;51.436;5.976;2022-11-23T00:31:40;40.61;38.96;42.68;;
71030;Laerm;63723;51.436;5.976;2022-11-23T00:31:50;40.26;38.53;45.11;;
71030;Laerm;63723;51.436;5.976;2022-11-23T00:32:00;40.76;38.90;42.41;;
71030;Laerm;63723;51.436;5.976;2022-11-23T00:32:11;41.76;39.56;46.85;;
71030;Laerm;63723;51.436;5.976;2022-11-23T00:32:21;41.13;39.51;45.45;;
71030;Laerm;63723;51.436;5.976;2022-11-23T00:32:31;42.56;40.04;53.95;;
71030;Laerm;63723;51.436;5.976;2022-11-23T00:32:41;45.58;40.72;54.00;;
71030;Laerm;63723;51.436;5.976;2022-11-23T00:32:52;42.02;40.50;45.55;;
71030;Laerm;63723;51.436;5.976;2022-11-23T00:33:03;41.09;39.44;43.54;;
71030;Laerm;63723;51.436;5.976;2022-11-23T00:33:13;40.87;39.03;43.75;;
71030;Laerm;63723;51.436;5.976;2022-11-23T00:33:23;41.66;39.62;43.31;;
71030;Laerm;63723;51.436;5.976;2022-11-23T00:33:34;42.96;40.38;52.45;;
71030;Laerm;63723;51.436;5.976;2022-11-23T00:33:51;43.41;41.38;46.18;;
71030;Laerm;63723;51.436;5.976;2022-11-23T00:34:01;45.19;40.82;52.36;;
71030;Laerm;63723;51.436;5.976;2022-11-23T00:34:12;69.75;50.81;77.58;;
71030;Laerm;63723;51.436;5.976;2022-11-23T00:34:22;54.80;40.94;64.60;;
71030;Laerm;63723;51.436;5.976;2022-11-23T00:34:32;41.04;39.33;43.21;;
71030;Laerm;63723;51.436;5.976;2022-11-23T00:34:43;40.57;39.02;43.43;;
71030;Laerm;63723;51.436;5.976;2022-11-23T00:34:53;40.79;39.28;43.09;;
71030;Laerm;63723;51.436;5.976;2022-11-23T00:35:03;40.19;38.77;42.03;;
71030;Laerm;63723;51.436;5.976;2022-11-23T00:35:14;39.96;38.06;41.81;;
71030;Laerm;63723;51.436;5.976;2022-11-23T00:35:24;40.30;38.18;45.14;;
71030;Laerm;63723;51.436;5.976;2022-11-23T00:35:34;40.69;38.78;43.32;;
71030;Laerm;63723;51.436;5.976;2022-11-23T00:35:44;40.39;39.06;42.67;;
71030;Laerm;63723;51.436;5.976;2022-11-23T00:35:58;42.28;40.01;44.05;;
71030;Laerm;63723;51.436;5.976;2022-11-23T00:36:10;42.30;40.66;44.39;;
71030;Laerm;63723;51.436;5.976;2022-11-23T00:36:22;42.59;40.04;44.42;;
71030;Laerm;63723;51.436;5.976;2022-11-23T00:36:33;41.22;39.69;43.18;;
71030;Laerm;63723;51.436;5.976;2022-11-23T00:36:43;40.85;39.15;43.39;;
71030;Laerm;63723;51.436;5.976;2022-11-23T00:36:53;40.27;38.69;42.19;;
71030;Laerm;63723;51.436;5.976;2022-11-23T00:37:03;40.30;38.92;42.29;;
71030;Laerm;63723;51.436;5.976;2022-11-23T00:37:14;40.08;38.37;42.99;;
71030;Laerm;63723;51.436;5.976;2022-11-23T00:37:24;40.07;38.04;41.91;;
71030;Laerm;63723;51.436;5.976;2022-11-23T00:37:34;40.16;38.78;42.27;;
71030;Laerm;63723;51.436;5.976;2022-11-23T00:37:44;39.95;38.69;42.43;;
71030;Laerm;63723;51.436;5.976;2022-11-23T00:37:55;40.20;38.61;41.92;;
71030;Laerm;63723;51.436;5.976;2022-11-23T00:38:05;40.21;38.74;41.52;;
71030;Laerm;63723;51.436;5.976;2022-11-23T00:38:15;39.94;38.26;41.94;;
71030;Laerm;63723;51.436;5.976;2022-11-23T00:38:27;40.22;38.65;42.25;;
71030;Laerm;63723;51.436;5.976;2022-11-23T00:38:37;40.54;39.23;42.63;;
71030;Laerm;63723;51.436;5.976;2022-11-23T00:38:48;40.21;38.62;41.76;;
71030;Laerm;63723;51.436;5.976;2022-11-23T00:38:59;40.61;38.99;49.88;;
71030;Laerm;63723;51.436;5.976;2022-11-23T00:39:09;40.50;38.84;43.48;;
71030;Laerm;63723;51.436;5.976;2022-11-23T00:39:19;40.06;38.52;41.75;;
71030;Laerm;63723;51.436;5.976;2022-11-23T00:39:30;40.34;38.48;45.75;;
71030;Laerm;63723;51.436;5.976;2022-11-23T00:39:40;40.37;38.66;43.88;;
71030;Laerm;63723;51.436;5.976;2022-11-23T00:39:50;40.44;38.82;45.97;;
71030;Laerm;63723;51.436;5.976;2022-11-23T00:40:00;40.34;38.20;44.40;;
71030;Laerm;63723;51.436;5.976;2022-11-23T00:40:11;40.46;38.31;42.54;;
71030;Laerm;63723;51.436;5.976;2022-11-23T00:40:21;41.58;39.95;44.28;;
71030;Laerm;63723;51.436;5.976;2022-11-23T00:40:32;41.93;40.13;44.86;;
71030;Laerm;63723;51.436;5.976;2022-11-23T00:40:42;40.85;39.31;42.82;;
71030;Laerm;63723;51.436;5.976;2022-11-23T00:40:59;40.77;39.03;43.76;;
71030;Laerm;63723;51.436;5.976;2022-11-23T00:41:15;41.05;39.19;43.27;;
71030;Laerm;63723;51.436;5.976;2022-11-23T00:41:26;40.75;38.89;44.03;;
71030;Laerm;63723;51.436;5.976;2022-11-23T00:41:36;40.56;38.74;42.56;;
71030;Laerm;63723;51.436;5.976;2022-11-23T00:41:47;40.30;39.04;42.08;;
71030;Laerm;63723;51.436;5.976;2022-11-23T00:41:57;40.11;38.42;41.88;;
71030;Laerm;63723;51.436;5.976;2022-11-23T00:42:07;40.01;38.59;45.88;;
71030;Laerm;63723;51.436;5.976;2022-11-23T00:42:17;39.62;38.23;41.40;;
71030;Laerm;63723;51.436;5.976;2022-11-23T00:42:28;39.66;38.18;42.96;;
71030;Laerm;63723;51.436;5.976;2022-11-23T00:42:38;40.25;38.43;45.35;;
71030;Laerm;63723;51.436;5.976;2022-11-23T00:42:48;41.59;39.85;44.10;;
71030;Laerm;63723;51.436;5.976;2022-11-23T00:42:58;41.28;39.36;43.72;;
71030;Laerm;63723;51.436;5.976;2022-11-23T00:43:09;40.32;38.76;42.81;;
71030;Laerm;63723;51.436;5.976;2022-11-23T00:43:19;40.62;39.01;43.22;;
71030;Laerm;63723;51.436;5.976;2022-11-23T00:43:29;44.27;39.08;54.97;;
71030;Laerm;63723;51.436;5.976;2022-11-23T00:43:40;53.60;41.08;65.57;;
71030;Laerm;63723;51.436;5.976;2022-11-23T00:43:50;44.30;40.37;54.42;;
71030;Laerm;63723;51.436;5.976;2022-11-23T00:44:00;41.76;39.98;43.62;;
71030;Laerm;63723;51.436;5.976;2022-11-23T00:44:11;40.59;39.05;43.10;;
71030;Laerm;63723;51.436;5.976;2022-11-23T00:44:21;40.74;39.15;43.11;;
71030;Laerm;63723;51.436;5.976;2022-11-23T00:44:31;40.36;38.43;48.10;;
71030;Laerm;63723;51.436;5.976;2022-11-23T00:44:42;40.12;38.71;42.28;;
71030;Laerm;63723;51.436;5.976;2022-11-23T00:44:52;39.81;38.09;42.04;;
71030;Laerm;63723;51.436;5.976;2022-11-23T00:45:02;40.07;38.77;42.51;;
71030;Laerm;63723;51.436;5.976;2022-11-23T00:45:13;40.12;38.30;43.35;;
71030;Laerm;63723;51.436;5.976;2022-11-23T00:45:23;40.26;38.66;42.55;;
71030;Laerm;63723;51.436;5.976;2022-11-23T00:45:33;40.36;39.03;42.77;;
71030;Laerm;63723;51.436;5.976;2022-11-23T00:45:43;40.54;38.81;42.49;;
71030;Laerm;63723;51.436;5.976;2022-11-23T00:46:23;40.16;38.33;42.24;;
71030;Laerm;63723;51.436;5.976;2022-11-23T00:46:33;44.18;39.05;60.38;;
71030;Laerm;63723;51.436;5.976;2022-11-23T00:46:44;40.20;38.67;42.37;;
71030;Laerm;63723;51.436;5.976;2022-11-23T00:46:54;39.94;38.39;42.64;;
71030;Laerm;63723;51.436;5.976;2022-11-23T00:47:04;40.09;38.15;43.45;;
71030;Laerm;63723;51.436;5.976;2022-11-23T00:47:14;40.47;38.74;42.06;;
71030;Laerm;63723;51.436;5.976;2022-11-23T00:47:25;41.28;38.58;47.88;;
71030;Laerm;63723;51.436;5.976;2022-11-23T00:47:35;39.80;38.50;42.21;;
71030;Laerm;63723;51.436;5.976;2022-11-23T00:47:45;40.01;38.28;41.72;;
71030;Laerm;63723;51.436;5.976;2022-11-23T00:47:55;40.36;38.68;43.75;;
71030;Laerm;63723;51.436;5.976;2022-11-23T00:48:06;40.50;38.75;43.28;;
71030;Laerm;63723;51.436;5.976;2022-11-23T00:48:17;40.58;38.90;44.69;;
71030;Laerm;63723;51.436;5.976;2022-11-23T00:48:27;40.63;38.47;43.24;;
71030;Laerm;63723;51.436;5.976;2022-11-23T00:48:38;39.99;38.11;41.92;;
71030;Laerm;63723;51.436;5.976;2022-11-23T00:48:48;40.28;38.23;43.43;;
71030;Laerm;63723;51.436;5.976;2022-11-23T00:48:59;39.82;38.19;44.72;;
71030;Laerm;63723;51.436;5.976;2022-11-23T00:49:10;40.08;38.52;41.56;;
71030;Laerm;63723;51.436;5.976;2022-11-23T00:49:21;39.89;38.10;41.92;;
71030;Laerm;63723;51.436;5.976;2022-11-23T00:49:31;39.92;38.34;42.56;;
71030;Laerm;63723;51.436;5.976;2022-11-23T00:49:41;39.86;37.95;41.84;;
71030;Laerm;63723;51.436;5.976;2022-11-23T00:49:51;39.94;38.27;42.29;;
71030;Laerm;63723;51.436;5.976;2022-11-23T00:50:02;39.91;38.10;43.28;;
71030;Laerm;63723;51.436;5.976;2022-11-23T00:50:12;40.04;38.33;42.74;;
71030;Laerm;63723;51.436;5.976;2022-11-23T00:50:23;39.93;37.85;43.39;;
71030;Laerm;63723;51.436;5.976;2022-11-23T00:50:33;40.38;38.85;42.05;;
71030;Laerm;63723;51.436;5.976;2022-11-23T00:50:43;40.40;39.01;42.42;;
71030;Laerm;63723;51.436;5.976;2022-11-23T00:50:53;40.58;38.56;44.08;;
71030;Laerm;63723;51.436;5.976;2022-11-23T00:51:05;40.23;38.33;43.89;;
71030;Laerm;63723;51.436;5.976;2022-11-23T00:51:20;40.57;38.59;45.21;;
71030;Laerm;63723;51.436;5.976;2022-11-23T00:51:31;40.61;39.03;42.08;;
71030;Laerm;63723;51.436;5.976;2022-11-23T00:51:42;40.18;38.37;42.16;;
71030;Laerm;63723;51.436;5.976;2022-11-23T00:51:52;40.20;38.44;44.83;;
71030;Laerm;63723;51.436;5.976;2022-11-23T00:52:03;39.96;38.39;41.54;;
71030;Laerm;63723;51.436;5.976;2022-11-23T00:52:13;39.89;38.17;42.44;;
71030;Laerm;63723;51.436;5.976;2022-11-23T00:52:23;40.66;39.03;44.17;;
71030;Laerm;63723;51.436;5.976;2022-11-23T00:52:33;40.88;39.18;49.43;;
71030;Laerm;63723;51.436;5.976;2022-11-23T00:52:44;40.96;38.32;45.34;;
71030;Laerm;63723;51.436;5.976;2022-11-23T00:52:54;41.91;39.15;50.28;;
71030;Laerm;63723;51.436;5.976;2022-11-23T00:53:04;41.12;39.46;46.32;;
71030;Laerm;63723;51.436;5.976;2022-11-23T00:53:14;40.82;38.98;42.77;;
71030;Laerm;63723;51.436;5.976;2022-11-23T00:53:25;42.46;40.94;44.51;;
71030;Laerm;63723;51.436;5.976;2022-11-23T00:53:35;42.44;40.47;44.69;;
71030;Laerm;63723;51.436;5.976;2022-11-23T00:53:45;41.91;40.22;45.16;;
71030;Laerm;63723;51.436;5.976;2022-11-23T00:53:56;41.35;39.71;43.77;;
71030;Laerm;63723;51.436;5.976;2022-11-23T00:54:06;42.95;39.72;51.62;;
71030;Laerm;63723;51.436;5.976;2022-11-23T00:54:16;41.03;39.37;46.72;;
71030;Laerm;63723;51.436;5.976;2022-11-23T00:54:26;40.41;38.73;42.10;;
71030;Laerm;63723;51.436;5.976;2022-11-23T00:54:37;40.34;38.07;41.96;;
71030;Laerm;63723;51.436;5.976;2022-11-23T00:54:47;40.15;38.30;42.47;;
71030;Laerm;63723;51.436;5.976;2022-11-23T00:54:57;40.44;38.88;42.92;;
71030;Laerm;63723;51.436;5.976;2022-11-23T00:55:08;40.30;38.76;43.60;;
71030;Laerm;63723;51.436;5.976;2022-11-23T00:55:18;40.42;38.29;46.14;;
71030;Laerm;63723;51.436;5.976;2022-11-23T00:55:28;39.90;38.12;50.03;;
71030;Laerm;63723;51.436;5.976;2022-11-23T00:55:39;39.65;38.34;41.61;;
71030;Laerm;63723;51.436;5.976;2022-11-23T00:55:50;39.52;37.85;41.87;;
71030;Laerm;63723;51.436;5.976;2022-11-23T00:56:00;39.44;37.74;41.65;;
71030;Laerm;63723;51.436;5.976;2022-11-23T00:56:11;39.71;38.13;42.36;;
71030;Laerm;63723;51.436;5.976;2022-11-23T00:56:22;39.63;38.05;41.88;;
71030;Laerm;63723;51.436;5.976;2022-11-23T00:56:32;39.97;38.28;43.03;;
71030;Laerm;63723;51.436;5.976;2022-11-23T00:56:43;39.90;38.39;42.97;;
71030;Laerm;63723;51.436;5.976;2022-11-23T00:56:53;39.92;38.40;46.19;;
71030;Laerm;63723;51.436;5.976;2022-11-23T00:57:04;40.12;38.32;43.76;;
71030;Laerm;63723;51.436;5.976;2022-11-23T00:57:14;39.85;38.20;41.63;;
71030;Laerm;63723;51.436;5.976;2022-11-23T00:57:24;39.58;37.99;41.61;;
71030;Laerm;63723;51.436;5.976;2022-11-23T00:57:34;40.06;38.45;43.11;;
71030;Laerm;63723;51.436;5.976;2022-11-23T00:57:45;39.86;38.43;41.29;;
71030;Laerm;63723;51.436;5.976;2022-11-23T00:57:55;40.19;38.32;42.26;;
71030;Laerm;63723;51.436;5.976;2022-11-23T00:58:06;39.77;38.24;42.65;;
71030;Laerm;63723;51.436;5.976;2022-11-23T00:58:17;39.55;37.92;42.24;;
71030;Laerm;63723;51.436;5.976;2022-11-23T00:58:27;39.68;38.23;41.78;;
71030;Laerm;63723;51.436;5.976;2022-11-23T00:58:37;40.24;38.41;46.43;;
71030;Laerm;63723;51.436;5.976;2022-11-23T00:58:48;42.92;39.75;54.73;;
71030;Laerm;63723;51.436;5.976;2022-11-23T00:58:59;41.24;39.11;46.70;;
71030;Laerm;63723;51.436;5.976;2022-11-23T00:59:10;41.34;38.84;50.80;;
71030;Laerm;63723;51.436;5.976;2022-11-23T00:59:20;47.94;39.79;62.69;;
71030;Laerm;63723;51.436;5.976;2022-11-23T00:59:30;41.08;39.15;44.18;;
71030;Laerm;63723;51.436;5.976;2022-11-23T00:59:41;40.95;39.31;42.85;;